RYR8JP LZKZ-LDZD
Flight info
| Callsign | RYR8JP |
|---|---|
| Flight time | 1h 20m |
| Altitude | 36000 |
| Route | LATOF DCT KOPRY DCT PIS DCT TNJ DCT KUDUL |
| Aircraft | A320/M-SDE3FGHIRWY/LB1 |
Departure
| Time | 2026-04-24 13:54 |
|---|---|
| Airport | Košice International Airport (LZKZ) |
Arrival
| Time | 2026-04-24 15:15 |
|---|---|
| Airport | Zadar Airport (LDZD) |
| Time | Latitude | Longitude | Altitude | Speed | Heading |
|---|---|---|---|---|---|
| 2026-04-24 13:25 | 48.67314 | 21.23875 | 767 ft | 0 kts | 360° |
| 2026-04-24 13:46 | 48.67314 | 21.23874 | 769 ft | 0 kts | 1° |
| 2026-04-24 13:46 | 48.67314 | 21.23873 | 766 ft | 0 kts | 0° |
| 2026-04-24 13:50 | 48.67319 | 21.23873 | 767 ft | 2 kts | 0° |
| 2026-04-24 13:50 | 48.67325 | 21.23850 | 767 ft | 2 kts | 246° |
| 2026-04-24 13:51 | 48.67305 | 21.23878 | 766 ft | 7 kts | 89° |
| 2026-04-24 13:51 | 48.67298 | 21.23976 | 765 ft | 13 kts | 104° |
| 2026-04-24 13:51 | 48.67274 | 21.24126 | 763 ft | 17 kts | 103° |
| 2026-04-24 13:51 | 48.67244 | 21.24313 | 761 ft | 20 kts | 102° |
| 2026-04-24 13:52 | 48.67274 | 21.24454 | 758 ft | 16 kts | 18° |
| 2026-04-24 13:52 | 48.67396 | 21.24498 | 755 ft | 19 kts | 14° |
| 2026-04-24 13:52 | 48.67527 | 21.24546 | 761 ft | 20 kts | 12° |
| 2026-04-24 13:52 | 48.67623 | 21.24622 | 763 ft | 13 kts | 38° |
| 2026-04-24 13:53 | 48.67648 | 21.24578 | 763 ft | 4 kts | 200° |
| 2026-04-24 13:53 | 48.67613 | 21.24574 | 762 ft | 0 kts | 192° |
| 2026-04-24 13:53 | 48.67583 | 21.24564 | 756 ft | 19 kts | 193° |
| 2026-04-24 13:54 | 48.67202 | 21.24432 | 763 ft | 90 kts | 193° |
| 2026-04-24 13:54 | 48.66404 | 21.24151 | 757 ft | 144 kts | 193° |
| 2026-04-24 13:54 | 48.65303 | 21.23759 | 947 ft | 169 kts | 191° |
| 2026-04-24 13:54 | 48.64161 | 21.23356 | 1636 ft | 169 kts | 193° |
| 2026-04-24 13:55 | 48.63015 | 21.22966 | 2308 ft | 169 kts | 193° |
| 2026-04-24 13:55 | 48.61865 | 21.22586 | 2912 ft | 170 kts | 194° |
| 2026-04-24 13:55 | 48.60663 | 21.22169 | 3229 ft | 190 kts | 194° |
| 2026-04-24 13:55 | 48.59299 | 21.21682 | 3530 ft | 212 kts | 194° |
| 2026-04-24 13:56 | 48.57833 | 21.21163 | 4117 ft | 219 kts | 194° |
| 2026-04-24 13:56 | 48.56341 | 21.20641 | 4817 ft | 222 kts | 194° |
| 2026-04-24 13:56 | 48.54902 | 21.19797 | 5456 ft | 224 kts | 213° |
| 2026-04-24 13:56 | 48.53659 | 21.18279 | 5845 ft | 241 kts | 227° |
| 2026-04-24 13:57 | 48.52410 | 21.16401 | 6255 ft | 266 kts | 227° |
| 2026-04-24 13:57 | 48.51069 | 21.14383 | 6917 ft | 277 kts | 227° |
| 2026-04-24 13:57 | 48.49684 | 21.12312 | 7727 ft | 283 kts | 228° |
| 2026-04-24 13:57 | 48.48269 | 21.10204 | 8561 ft | 288 kts | 228° |
| 2026-04-24 13:58 | 48.46845 | 21.08095 | 9378 ft | 294 kts | 228° |
| 2026-04-24 13:58 | 48.45375 | 21.05918 | 10142 ft | 301 kts | 228° |
| 2026-04-24 13:58 | 48.43827 | 21.03619 | 10410 ft | 324 kts | 228° |
| 2026-04-24 13:58 | 48.42180 | 21.01173 | 10828 ft | 339 kts | 227° |
| 2026-04-24 13:59 | 48.40483 | 20.98670 | 11468 ft | 345 kts | 227° |
| 2026-04-24 13:59 | 48.38758 | 20.96129 | 12161 ft | 350 kts | 227° |
| 2026-04-24 13:59 | 48.37009 | 20.93551 | 12838 ft | 355 kts | 227° |
| 2026-04-24 13:59 | 48.35257 | 20.90972 | 13513 ft | 359 kts | 227° |
| 2026-04-24 14:00 | 48.33464 | 20.88331 | 14147 ft | 364 kts | 227° |
| 2026-04-24 14:00 | 48.31645 | 20.85652 | 14763 ft | 367 kts | 227° |
| 2026-04-24 14:00 | 48.29813 | 20.82956 | 15377 ft | 371 kts | 227° |
| 2026-04-24 14:00 | 48.27980 | 20.80201 | 15971 ft | 373 kts | 232° |
| 2026-04-24 14:01 | 48.26382 | 20.77129 | 16574 ft | 375 kts | 237° |
| 2026-04-24 14:01 | 48.24823 | 20.73977 | 17192 ft | 378 kts | 237° |
| 2026-04-24 14:01 | 48.23249 | 20.70799 | 17814 ft | 381 kts | 237° |
| 2026-04-24 14:01 | 48.21657 | 20.67594 | 18417 ft | 385 kts | 237° |
| 2026-04-24 14:02 | 48.20050 | 20.64363 | 18977 ft | 388 kts | 237° |
| 2026-04-24 14:02 | 48.18427 | 20.61103 | 19536 ft | 391 kts | 237° |
| 2026-04-24 14:02 | 48.16914 | 20.58068 | 20064 ft | 394 kts | 237° |
| 2026-04-24 14:02 | 48.15252 | 20.54738 | 20637 ft | 398 kts | 237° |
| 2026-04-24 14:03 | 48.13588 | 20.51408 | 21191 ft | 401 kts | 238° |
| 2026-04-24 14:03 | 48.11909 | 20.48050 | 21742 ft | 405 kts | 238° |
| 2026-04-24 14:03 | 48.10240 | 20.44714 | 22245 ft | 408 kts | 237° |
| 2026-04-24 14:03 | 48.08530 | 20.41302 | 22792 ft | 411 kts | 237° |
| 2026-04-24 14:04 | 48.06809 | 20.37875 | 23336 ft | 414 kts | 237° |
| 2026-04-24 14:04 | 48.05074 | 20.34426 | 23826 ft | 417 kts | 237° |
| 2026-04-24 14:04 | 48.03323 | 20.30949 | 24276 ft | 420 kts | 237° |
| 2026-04-24 14:04 | 48.01560 | 20.27451 | 24706 ft | 423 kts | 237° |
| 2026-04-24 14:05 | 47.99786 | 20.23935 | 25142 ft | 426 kts | 237° |
| 2026-04-24 14:05 | 47.97998 | 20.20399 | 25553 ft | 428 kts | 237° |
| 2026-04-24 14:05 | 47.96197 | 20.16837 | 25970 ft | 431 kts | 237° |
| 2026-04-24 14:05 | 47.94411 | 20.13306 | 26362 ft | 434 kts | 237° |
| 2026-04-24 14:06 | 47.92586 | 20.09698 | 26757 ft | 437 kts | 237° |
| 2026-04-24 14:06 | 47.90749 | 20.06082 | 27153 ft | 440 kts | 237° |
| 2026-04-24 14:06 | 47.88893 | 20.02445 | 27542 ft | 442 kts | 237° |
| 2026-04-24 14:06 | 47.87045 | 19.98830 | 27938 ft | 445 kts | 237° |
| 2026-04-24 14:07 | 47.85167 | 19.95152 | 28309 ft | 447 kts | 237° |
| 2026-04-24 14:07 | 47.83281 | 19.91455 | 28673 ft | 450 kts | 237° |
| 2026-04-24 14:07 | 47.81381 | 19.87731 | 29052 ft | 452 kts | 237° |
| 2026-04-24 14:07 | 47.79472 | 19.83994 | 29420 ft | 455 kts | 236° |
| 2026-04-24 14:08 | 47.77575 | 19.80293 | 29757 ft | 458 kts | 236° |
| 2026-04-24 14:08 | 47.75634 | 19.76512 | 30106 ft | 461 kts | 236° |
| 2026-04-24 14:08 | 47.73683 | 19.72720 | 30412 ft | 464 kts | 236° |
| 2026-04-24 14:08 | 47.71718 | 19.68909 | 30720 ft | 465 kts | 236° |
| 2026-04-24 14:09 | 47.69745 | 19.65089 | 31034 ft | 467 kts | 236° |
| 2026-04-24 14:09 | 47.67764 | 19.61252 | 31358 ft | 469 kts | 236° |
| 2026-04-24 14:09 | 47.65781 | 19.57410 | 31795 ft | 468 kts | 236° |
| 2026-04-24 14:09 | 47.63827 | 19.53634 | 32222 ft | 467 kts | 236° |
| 2026-04-24 14:10 | 47.62490 | 19.51055 | 32509 ft | 467 kts | 236° |
| 2026-04-24 14:10 | 47.59871 | 19.46005 | 33051 ft | 467 kts | 236° |
| 2026-04-24 14:10 | 47.57890 | 19.42193 | 33472 ft | 467 kts | 236° |
| 2026-04-24 14:10 | 47.55912 | 19.38392 | 33901 ft | 466 kts | 236° |
| 2026-04-24 14:11 | 47.53928 | 19.34591 | 34283 ft | 466 kts | 236° |
| 2026-04-24 14:11 | 47.51949 | 19.30804 | 34631 ft | 465 kts | 236° |
| 2026-04-24 14:11 | 47.47988 | 19.23229 | 35263 ft | 466 kts | 236° |
| 2026-04-24 14:12 | 47.46004 | 19.19443 | 35576 ft | 466 kts | 236° |
| 2026-04-24 14:12 | 47.44043 | 19.15711 | 35859 ft | 466 kts | 236° |
| 2026-04-24 14:12 | 47.42050 | 19.11924 | 35981 ft | 467 kts | 236° |
| 2026-04-24 14:13 | 47.38069 | 19.04372 | 36001 ft | 466 kts | 236° |
| 2026-04-24 14:13 | 47.34089 | 18.96840 | 36003 ft | 466 kts | 236° |
| 2026-04-24 14:14 | 47.30104 | 18.89316 | 36008 ft | 466 kts | 236° |
| 2026-04-24 14:14 | 47.24146 | 18.78109 | 36020 ft | 465 kts | 235° |
| 2026-04-24 14:15 | 47.20148 | 18.70609 | 36022 ft | 466 kts | 235° |
| 2026-04-24 14:15 | 47.16140 | 18.63118 | 36034 ft | 466 kts | 235° |
| 2026-04-24 14:16 | 47.12124 | 18.55640 | 36034 ft | 466 kts | 235° |
| 2026-04-24 14:17 | 47.06122 | 18.44486 | 36044 ft | 467 kts | 235° |
| 2026-04-24 14:17 | 47.00073 | 18.33289 | 36025 ft | 467 kts | 234° |
| 2026-04-24 14:18 | 46.96036 | 18.25842 | 36039 ft | 467 kts | 234° |
| 2026-04-24 14:18 | 46.92000 | 18.18402 | 36044 ft | 467 kts | 234° |
| 2026-04-24 14:19 | 46.87978 | 18.11016 | 36047 ft | 467 kts | 234° |
| 2026-04-24 14:19 | 46.83919 | 18.03604 | 36060 ft | 467 kts | 234° |
| 2026-04-24 14:20 | 46.79852 | 17.96201 | 36051 ft | 467 kts | 234° |
| 2026-04-24 14:20 | 46.75788 | 17.88793 | 36052 ft | 468 kts | 234° |
| 2026-04-24 14:21 | 46.71720 | 17.81393 | 36067 ft | 468 kts | 233° |
| 2026-04-24 14:21 | 46.67668 | 17.74063 | 36069 ft | 468 kts | 233° |
| 2026-04-24 14:22 | 46.63577 | 17.66684 | 36049 ft | 468 kts | 233° |
| 2026-04-24 14:23 | 46.57442 | 17.55648 | 36066 ft | 468 kts | 233° |
| 2026-04-24 14:23 | 46.53350 | 17.48306 | 36065 ft | 468 kts | 233° |
| 2026-04-24 14:24 | 46.49274 | 17.41017 | 36071 ft | 468 kts | 233° |
| 2026-04-24 14:24 | 46.45167 | 17.33699 | 36068 ft | 468 kts | 233° |
| 2026-04-24 14:25 | 46.41754 | 17.27619 | 36066 ft | 468 kts | 233° |
| 2026-04-24 14:25 | 46.36948 | 17.19067 | 36067 ft | 468 kts | 232° |
| 2026-04-24 14:26 | 46.32849 | 17.11819 | 36068 ft | 468 kts | 232° |
| 2026-04-24 14:26 | 46.28719 | 17.04535 | 36068 ft | 469 kts | 232° |
| 2026-04-24 14:27 | 46.24581 | 16.97255 | 36055 ft | 469 kts | 232° |
| 2026-04-24 14:27 | 46.20457 | 16.89951 | 36060 ft | 469 kts | 233° |
| 2026-04-24 14:28 | 46.16397 | 16.82656 | 36065 ft | 469 kts | 233° |
| 2026-04-24 14:28 | 46.12307 | 16.75309 | 36062 ft | 470 kts | 232° |
| 2026-04-24 14:29 | 46.08200 | 16.67985 | 36065 ft | 470 kts | 232° |
| 2026-04-24 14:29 | 46.04083 | 16.60677 | 36067 ft | 470 kts | 232° |
| 2026-04-24 14:30 | 46.00657 | 16.54607 | 36070 ft | 470 kts | 232° |
| 2026-04-24 14:30 | 45.95872 | 16.46129 | 36070 ft | 470 kts | 232° |
| 2026-04-24 14:31 | 45.91743 | 16.38851 | 36055 ft | 470 kts | 232° |
| 2026-04-24 14:31 | 45.87605 | 16.31590 | 36066 ft | 470 kts | 232° |
| 2026-04-24 14:32 | 45.83470 | 16.24340 | 36073 ft | 470 kts | 232° |
| 2026-04-24 14:32 | 45.79359 | 16.17148 | 36070 ft | 469 kts | 231° |
| 2026-04-24 14:33 | 45.75218 | 16.09920 | 36073 ft | 469 kts | 231° |
| 2026-04-24 14:33 | 45.71076 | 16.02707 | 36070 ft | 469 kts | 231° |
| 2026-04-24 14:34 | 45.66928 | 15.95510 | 36065 ft | 469 kts | 231° |
| 2026-04-24 14:34 | 45.62797 | 15.88372 | 36063 ft | 469 kts | 231° |
| 2026-04-24 14:35 | 45.58419 | 15.81490 | 36007 ft | 467 kts | 224° |
| 2026-04-24 14:35 | 45.56101 | 15.78260 | 35581 ft | 464 kts | 224° |
| 2026-04-24 14:35 | 45.53799 | 15.75054 | 35162 ft | 460 kts | 224° |
| 2026-04-24 14:35 | 45.51516 | 15.71878 | 34753 ft | 457 kts | 224° |
| 2026-04-24 14:36 | 45.49248 | 15.68729 | 34349 ft | 453 kts | 224° |
| 2026-04-24 14:36 | 45.46996 | 15.65609 | 33923 ft | 450 kts | 224° |
| 2026-04-24 14:36 | 45.44760 | 15.62515 | 33456 ft | 447 kts | 224° |
| 2026-04-24 14:36 | 45.42567 | 15.59485 | 33024 ft | 443 kts | 224° |
| 2026-04-24 14:37 | 45.40363 | 15.56444 | 32609 ft | 439 kts | 224° |
| 2026-04-24 14:37 | 45.38178 | 15.53428 | 32198 ft | 436 kts | 224° |
| 2026-04-24 14:37 | 45.36013 | 15.50439 | 31786 ft | 432 kts | 224° |
| 2026-04-24 14:37 | 45.33865 | 15.47476 | 31405 ft | 429 kts | 224° |
| 2026-04-24 14:38 | 45.31732 | 15.44542 | 31025 ft | 425 kts | 224° |
| 2026-04-24 14:38 | 45.29612 | 15.41631 | 30648 ft | 422 kts | 224° |
| 2026-04-24 14:38 | 45.27509 | 15.38742 | 30281 ft | 419 kts | 223° |
| 2026-04-24 14:38 | 45.25306 | 15.36162 | 29909 ft | 415 kts | 213° |
| 2026-04-24 14:39 | 45.22816 | 15.34138 | 29502 ft | 411 kts | 202° |
| 2026-04-24 14:39 | 45.20159 | 15.32703 | 29107 ft | 407 kts | 198° |
| 2026-04-24 14:39 | 45.17494 | 15.31389 | 28718 ft | 405 kts | 198° |
| 2026-04-24 14:39 | 45.14843 | 15.30086 | 28298 ft | 400 kts | 198° |
| 2026-04-24 14:40 | 45.12226 | 15.28798 | 27650 ft | 397 kts | 198° |
| 2026-04-24 14:40 | 45.09638 | 15.27515 | 27028 ft | 392 kts | 198° |
| 2026-04-24 14:40 | 45.07074 | 15.26236 | 26401 ft | 388 kts | 198° |
| 2026-04-24 14:40 | 45.04542 | 15.24976 | 25769 ft | 384 kts | 198° |
| 2026-04-24 14:41 | 45.02064 | 15.23756 | 25145 ft | 380 kts | 198° |
| 2026-04-24 14:41 | 44.99576 | 15.22532 | 24523 ft | 377 kts | 198° |
| 2026-04-24 14:41 | 44.97113 | 15.21322 | 23924 ft | 373 kts | 198° |
| 2026-04-24 14:41 | 44.94671 | 15.20122 | 23258 ft | 370 kts | 198° |
| 2026-04-24 14:42 | 44.93068 | 15.19334 | 22808 ft | 367 kts | 198° |
| 2026-04-24 14:42 | 44.89868 | 15.17757 | 21892 ft | 362 kts | 198° |
| 2026-04-24 14:42 | 44.87500 | 15.16588 | 21221 ft | 359 kts | 198° |
| 2026-04-24 14:42 | 44.85153 | 15.15429 | 20570 ft | 356 kts | 198° |
| 2026-04-24 14:43 | 44.82821 | 15.14277 | 19953 ft | 353 kts | 198° |
| 2026-04-24 14:43 | 44.80541 | 15.13152 | 19352 ft | 350 kts | 198° |
| 2026-04-24 14:43 | 44.78247 | 15.12024 | 18752 ft | 348 kts | 198° |
| 2026-04-24 14:43 | 44.75970 | 15.10908 | 18149 ft | 346 kts | 198° |
| 2026-04-24 14:44 | 44.73709 | 15.09805 | 17515 ft | 342 kts | 198° |
| 2026-04-24 14:44 | 44.71467 | 15.08718 | 16896 ft | 338 kts | 197° |
| 2026-04-24 14:44 | 44.69191 | 15.08039 | 16324 ft | 333 kts | 184° |
| 2026-04-24 14:44 | 44.66894 | 15.08083 | 15713 ft | 328 kts | 171° |
| 2026-04-24 14:45 | 44.64694 | 15.08819 | 15135 ft | 324 kts | 158° |
| 2026-04-24 14:45 | 44.62684 | 15.10173 | 14580 ft | 319 kts | 146° |
| 2026-04-24 14:45 | 44.60821 | 15.11773 | 14000 ft | 317 kts | 147° |
| 2026-04-24 14:45 | 44.58931 | 15.13384 | 13572 ft | 317 kts | 147° |
| 2026-04-24 14:46 | 44.57049 | 15.14982 | 13223 ft | 315 kts | 147° |
| 2026-04-24 14:46 | 44.55181 | 15.16564 | 12863 ft | 313 kts | 147° |
| 2026-04-24 14:46 | 44.53326 | 15.18130 | 12525 ft | 310 kts | 147° |
| 2026-04-24 14:46 | 44.51481 | 15.19685 | 12159 ft | 308 kts | 147° |
| 2026-04-24 14:47 | 44.50266 | 15.20707 | 11898 ft | 308 kts | 147° |
| 2026-04-24 14:47 | 44.48433 | 15.22256 | 11559 ft | 307 kts | 147° |
| 2026-04-24 14:47 | 44.46605 | 15.23802 | 11195 ft | 306 kts | 147° |
| 2026-04-24 14:47 | 44.44199 | 15.25837 | 10703 ft | 304 kts | 147° |
| 2026-04-24 14:48 | 44.42387 | 15.27370 | 10335 ft | 304 kts | 148° |
| 2026-04-24 14:48 | 44.40584 | 15.28894 | 10033 ft | 302 kts | 147° |
| 2026-04-24 14:48 | 44.39373 | 15.29918 | 9822 ft | 300 kts | 148° |
| 2026-04-24 14:48 | 44.37020 | 15.31904 | 9361 ft | 297 kts | 147° |
| 2026-04-24 14:49 | 44.35846 | 15.32892 | 9102 ft | 297 kts | 147° |
| 2026-04-24 14:49 | 44.34079 | 15.34378 | 8766 ft | 296 kts | 147° |
| 2026-04-24 14:49 | 44.32324 | 15.35853 | 8444 ft | 293 kts | 148° |
| 2026-04-24 14:49 | 44.30023 | 15.37781 | 8094 ft | 289 kts | 148° |
| 2026-04-24 14:50 | 44.28297 | 15.39230 | 8020 ft | 290 kts | 148° |
| 2026-04-24 14:50 | 44.26559 | 15.40689 | 8031 ft | 292 kts | 148° |
| 2026-04-24 14:50 | 44.25386 | 15.41674 | 8034 ft | 291 kts | 148° |
| 2026-04-24 14:50 | 44.23672 | 15.43110 | 8035 ft | 291 kts | 148° |
| 2026-04-24 14:51 | 44.21930 | 15.44569 | 8032 ft | 294 kts | 147° |
| 2026-04-24 14:51 | 44.20173 | 15.46041 | 8032 ft | 295 kts | 146° |
| 2026-04-24 14:51 | 44.18420 | 15.47510 | 8037 ft | 292 kts | 147° |
| 2026-04-24 14:51 | 44.16805 | 15.49199 | 8035 ft | 290 kts | 134° |
| 2026-04-24 14:52 | 44.15359 | 15.51159 | 8030 ft | 289 kts | 134° |
| 2026-04-24 14:52 | 44.13920 | 15.53102 | 7928 ft | 288 kts | 133° |
| 2026-04-24 14:52 | 44.12475 | 15.55048 | 7574 ft | 288 kts | 133° |
| 2026-04-24 14:52 | 44.11065 | 15.56945 | 7370 ft | 283 kts | 134° |
| 2026-04-24 14:53 | 44.09657 | 15.58839 | 6941 ft | 282 kts | 133° |
| 2026-04-24 14:53 | 44.08253 | 15.60727 | 6431 ft | 281 kts | 133° |
| 2026-04-24 14:53 | 44.06851 | 15.62607 | 5981 ft | 280 kts | 134° |
| 2026-04-24 14:53 | 44.05455 | 15.64479 | 5651 ft | 278 kts | 133° |
| 2026-04-24 14:54 | 44.04029 | 15.66291 | 5276 ft | 279 kts | 144° |
| 2026-04-24 14:54 | 44.02226 | 15.67163 | 5009 ft | 276 kts | 179° |
| 2026-04-24 14:54 | 44.00408 | 15.66513 | 4652 ft | 273 kts | 216° |
| 2026-04-24 14:54 | 43.98999 | 15.64761 | 4325 ft | 271 kts | 228° |
| 2026-04-24 14:55 | 43.97693 | 15.62890 | 4047 ft | 268 kts | 230° |
| 2026-04-24 14:55 | 43.96430 | 15.61049 | 3799 ft | 266 kts | 229° |
| 2026-04-24 14:55 | 43.95164 | 15.59201 | 3483 ft | 264 kts | 230° |
| 2026-04-24 14:55 | 43.93940 | 15.57321 | 3173 ft | 260 kts | 239° |
| 2026-04-24 14:56 | 43.93445 | 15.55027 | 2996 ft | 244 kts | 277° |
| 2026-04-24 14:56 | 43.94061 | 15.53001 | 2993 ft | 222 kts | 315° |
| 2026-04-24 14:56 | 43.95378 | 15.52126 | 2999 ft | 207 kts | 349° |
| 2026-04-24 14:56 | 43.96745 | 15.51843 | 3003 ft | 192 kts | 343° |
| 2026-04-24 14:57 | 43.97941 | 15.51195 | 3024 ft | 184 kts | 328° |
| 2026-04-24 14:57 | 43.98971 | 15.50169 | 3039 ft | 181 kts | 318° |
| 2026-04-24 14:57 | 43.99910 | 15.49021 | 3012 ft | 179 kts | 316° |
| 2026-04-24 14:57 | 44.00831 | 15.47852 | 2829 ft | 176 kts | 316° |
| 2026-04-24 14:58 | 44.01694 | 15.46743 | 2563 ft | 161 kts | 315° |
| 2026-04-24 14:58 | 44.02451 | 15.45766 | 2350 ft | 140 kts | 315° |
| 2026-04-24 14:58 | 44.03140 | 15.44876 | 2140 ft | 132 kts | 315° |
| 2026-04-24 14:58 | 44.03805 | 15.44014 | 1953 ft | 129 kts | 314° |
| 2026-04-24 14:59 | 44.04459 | 15.43164 | 1755 ft | 128 kts | 314° |
| 2026-04-24 14:59 | 44.05102 | 15.42329 | 1575 ft | 128 kts | 314° |
| 2026-04-24 14:59 | 44.05752 | 15.41487 | 1381 ft | 127 kts | 314° |
| 2026-04-24 14:59 | 44.06407 | 15.40652 | 1192 ft | 128 kts | 317° |
| 2026-04-24 15:00 | 44.07053 | 15.39806 | 989 ft | 128 kts | 313° |
| 2026-04-24 15:00 | 44.07690 | 15.38930 | 830 ft | 130 kts | 313° |
| 2026-04-24 15:00 | 44.08352 | 15.38039 | 712 ft | 135 kts | 314° |
| 2026-04-24 15:00 | 44.08999 | 15.37153 | 577 ft | 129 kts | 315° |
| 2026-04-24 15:01 | 44.09636 | 15.36298 | 392 ft | 126 kts | 315° |
| 2026-04-24 15:01 | 44.10255 | 15.35448 | 276 ft | 123 kts | 314° |
| 2026-04-24 15:01 | 44.10893 | 15.34587 | 693 ft | 128 kts | 315° |
| 2026-04-24 15:01 | 44.11541 | 15.33721 | 1399 ft | 134 kts | 315° |
| 2026-04-24 15:02 | 44.12254 | 15.32758 | 2094 ft | 146 kts | 315° |
| 2026-04-24 15:02 | 44.12991 | 15.31743 | 2535 ft | 159 kts | 314° |
| 2026-04-24 15:02 | 44.13804 | 15.30605 | 2944 ft | 174 kts | 314° |
| 2026-04-24 15:02 | 44.14704 | 15.29333 | 3276 ft | 197 kts | 313° |
| 2026-04-24 15:03 | 44.15397 | 15.27578 | 3129 ft | 217 kts | 282° |
| 2026-04-24 15:03 | 44.15234 | 15.25464 | 3027 ft | 238 kts | 249° |
| 2026-04-24 15:03 | 44.14203 | 15.23530 | 3007 ft | 258 kts | 227° |
| 2026-04-24 15:03 | 44.12882 | 15.21807 | 3009 ft | 262 kts | 225° |
| 2026-04-24 15:04 | 44.11516 | 15.20136 | 3010 ft | 262 kts | 224° |
| 2026-04-24 15:04 | 44.10147 | 15.18458 | 3010 ft | 262 kts | 224° |
| 2026-04-24 15:04 | 44.08599 | 15.17193 | 3002 ft | 267 kts | 198° |
| 2026-04-24 15:04 | 44.06739 | 15.17074 | 3010 ft | 272 kts | 169° |
| 2026-04-24 15:05 | 44.05035 | 15.18192 | 3018 ft | 274 kts | 141° |
| 2026-04-24 15:05 | 44.03625 | 15.19982 | 3011 ft | 275 kts | 135° |
| 2026-04-24 15:05 | 44.02267 | 15.21852 | 3009 ft | 275 kts | 135° |
| 2026-04-24 15:05 | 44.00914 | 15.23740 | 3009 ft | 276 kts | 135° |
| 2026-04-24 15:06 | 43.99560 | 15.25635 | 3007 ft | 276 kts | 135° |
| 2026-04-24 15:06 | 43.98210 | 15.27528 | 3008 ft | 276 kts | 135° |
| 2026-04-24 15:06 | 43.96877 | 15.29397 | 3015 ft | 277 kts | 135° |
| 2026-04-24 15:06 | 43.95519 | 15.31304 | 3002 ft | 278 kts | 135° |
| 2026-04-24 15:07 | 43.94169 | 15.33216 | 3005 ft | 277 kts | 135° |
| 2026-04-24 15:07 | 43.92819 | 15.35135 | 3008 ft | 278 kts | 135° |
| 2026-04-24 15:07 | 43.91471 | 15.37051 | 3006 ft | 278 kts | 135° |
| 2026-04-24 15:07 | 43.90123 | 15.38969 | 3002 ft | 278 kts | 135° |
| 2026-04-24 15:08 | 43.88915 | 15.41022 | 3000 ft | 271 kts | 116° |
| 2026-04-24 15:08 | 43.88483 | 15.43446 | 3001 ft | 251 kts | 85° |
| 2026-04-24 15:08 | 43.88941 | 15.45634 | 2999 ft | 228 kts | 53° |
| 2026-04-24 15:08 | 43.89881 | 15.47371 | 3007 ft | 225 kts | 46° |
| 2026-04-24 15:09 | 43.90877 | 15.49008 | 3007 ft | 225 kts | 45° |
| 2026-04-24 15:09 | 43.91897 | 15.50652 | 3007 ft | 225 kts | 45° |
| 2026-04-24 15:09 | 43.92925 | 15.52272 | 3007 ft | 223 kts | 40° |
| 2026-04-24 15:09 | 43.94210 | 15.53282 | 2992 ft | 203 kts | 6° |
| 2026-04-24 15:10 | 43.95554 | 15.53120 | 2999 ft | 192 kts | 341° |
| 2026-04-24 15:10 | 43.96825 | 15.52602 | 3000 ft | 189 kts | 339° |
| 2026-04-24 15:10 | 43.97967 | 15.51763 | 3006 ft | 186 kts | 319° |
| 2026-04-24 15:10 | 43.98908 | 15.50542 | 3003 ft | 185 kts | 311° |
| 2026-04-24 15:11 | 43.99760 | 15.49232 | 3003 ft | 185 kts | 310° |
| 2026-04-24 15:11 | 44.00614 | 15.47880 | 2903 ft | 188 kts | 309° |
| 2026-04-24 15:11 | 44.01526 | 15.46576 | 2620 ft | 189 kts | 315° |
| 2026-04-24 15:11 | 44.02506 | 15.45363 | 2368 ft | 187 kts | 317° |
| 2026-04-24 15:12 | 44.03463 | 15.44237 | 2103 ft | 174 kts | 317° |
| 2026-04-24 15:12 | 44.05127 | 15.42121 | 1587 ft | 148 kts | 313° |
| 2026-04-24 15:12 | 44.05843 | 15.41202 | 1369 ft | 137 kts | 315° |
| 2026-04-24 15:13 | 44.06556 | 15.40424 | 1116 ft | 128 kts | 319° |
| 2026-04-24 15:13 | 44.07217 | 15.39578 | 934 ft | 130 kts | 312° |
| 2026-04-24 15:13 | 44.07870 | 15.38680 | 830 ft | 135 kts | 314° |
| 2026-04-24 15:13 | 44.08548 | 15.37767 | 704 ft | 136 kts | 312° |
| 2026-04-24 15:14 | 44.09225 | 15.36854 | 521 ft | 136 kts | 313° |
| 2026-04-24 15:14 | 44.09905 | 15.35925 | 338 ft | 136 kts | 313° |
| 2026-04-24 15:14 | 44.10541 | 15.35061 | 263 ft | 108 kts | 316° |
| 2026-04-24 15:14 | 44.10955 | 15.34500 | 258 ft | 58 kts | 315° |
| 2026-04-24 15:15 | 44.11135 | 15.34255 | 257 ft | 20 kts | 314° |
| 2026-04-24 15:15 | 44.11105 | 15.34154 | 257 ft | 14 kts | 221° |
| 2026-04-24 15:15 | 44.11037 | 15.34057 | 257 ft | 7 kts | 225° |
| 2026-04-24 15:15 | 44.11031 | 15.34048 | 257 ft | 0 kts | 225° |
| 2026-04-24 15:16 | 44.11026 | 15.34042 | 257 ft | 3 kts | 224° |
| 2026-04-24 15:16 | 44.10983 | 15.34054 | 257 ft | 9 kts | 139° |
| 2026-04-24 15:16 | 44.10935 | 15.34121 | 258 ft | 11 kts | 134° |
| 2026-04-24 15:16 | 44.10877 | 15.34201 | 258 ft | 13 kts | 136° |
| 2026-04-24 15:17 | 44.10809 | 15.34293 | 259 ft | 15 kts | 135° |
| 2026-04-24 15:17 | 44.10731 | 15.34396 | 260 ft | 16 kts | 136° |
| 2026-04-24 15:17 | 44.10646 | 15.34512 | 261 ft | 18 kts | 135° |
| 2026-04-24 15:17 | 44.10550 | 15.34643 | 261 ft | 20 kts | 135° |
| 2026-04-24 15:18 | 44.10446 | 15.34785 | 262 ft | 22 kts | 135° |
| 2026-04-24 15:18 | 44.10333 | 15.34940 | 263 ft | 23 kts | 136° |
| 2026-04-24 15:18 | 44.10210 | 15.35103 | 264 ft | 25 kts | 136° |
| 2026-04-24 15:18 | 44.10077 | 15.35282 | 265 ft | 28 kts | 136° |
| 2026-04-24 15:19 | 44.09974 | 15.35426 | 266 ft | 14 kts | 133° |
| 2026-04-24 15:19 | 44.09910 | 15.35511 | 267 ft | 14 kts | 143° |
| 2026-04-24 15:19 | 44.09810 | 15.35535 | 266 ft | 16 kts | 173° |
| 2026-04-24 15:19 | 44.09755 | 15.35539 | 264 ft | 1 kts | 178° |
| 2026-04-24 15:20 | 44.09749 | 15.35539 | 264 ft | 3 kts | 181° |
| 2026-04-24 15:20 | 44.09732 | 15.35497 | 263 ft | 8 kts | 272° |
| 2026-04-24 15:20 | 44.09751 | 15.35464 | 264 ft | 0 kts | 356° |
| 2026-04-24 15:20 | 44.09758 | 15.35464 | 264 ft | 0 kts | 358° |